sensor_id;sensor_type;location;lat;lon;timestamp;P1;durP1;ratioP1;P2;durP2;ratioP2
60038;SDS011;45916;52.734;6.544;2023-01-19T00:01:22;10.88;;;9.73;;
60038;SDS011;45916;52.734;6.544;2023-01-19T00:03:49;11.05;;;8.52;;
60038;SDS011;45916;52.734;6.544;2023-01-19T00:06:15;9.60;;;8.25;;
60038;SDS011;45916;52.734;6.544;2023-01-19T00:08:42;9.05;;;6.10;;
60038;SDS011;45916;52.734;6.544;2023-01-19T00:11:12;8.70;;;6.55;;
60038;SDS011;45916;52.734;6.544;2023-01-19T00:13:38;9.80;;;6.13;;
60038;SDS011;45916;52.734;6.544;2023-01-19T00:16:04;10.88;;;6.93;;
60038;SDS011;45916;52.734;6.544;2023-01-19T00:18:31;7.30;;;5.95;;
60038;SDS011;45916;52.734;6.544;2023-01-19T00:20:57;7.15;;;5.55;;
60038;SDS011;45916;52.734;6.544;2023-01-19T00:23:23;7.43;;;5.15;;
60038;SDS011;45916;52.734;6.544;2023-01-19T00:25:48;7.43;;;4.70;;
60038;SDS011;45916;52.734;6.544;2023-01-19T00:28:16;6.50;;;4.38;;
60038;SDS011;45916;52.734;6.544;2023-01-19T00:30:42;7.65;;;3.83;;
60038;SDS011;45916;52.734;6.544;2023-01-19T00:33:09;6.28;;;3.40;;
60038;SDS011;45916;52.734;6.544;2023-01-19T00:35:38;6.57;;;4.50;;
60038;SDS011;45916;52.734;6.544;2023-01-19T00:38:06;6.55;;;3.65;;
60038;SDS011;45916;52.734;6.544;2023-01-19T00:40:32;5.57;;;3.38;;
60038;SDS011;45916;52.734;6.544;2023-01-19T00:42:58;5.22;;;3.13;;
60038;SDS011;45916;52.734;6.544;2023-01-19T00:45:24;6.95;;;4.07;;
60038;SDS011;45916;52.734;6.544;2023-01-19T00:47:50;6.72;;;4.72;;
60038;SDS011;45916;52.734;6.544;2023-01-19T00:50:26;6.82;;;5.10;;
60038;SDS011;45916;52.734;6.544;2023-01-19T00:52:53;10.75;;;5.43;;
60038;SDS011;45916;52.734;6.544;2023-01-19T00:55:20;8.73;;;7.25;;
60038;SDS011;45916;52.734;6.544;2023-01-19T00:57:46;8.45;;;7.47;;
60038;SDS011;45916;52.734;6.544;2023-01-19T01:00:14;10.18;;;8.95;;
60038;SDS011;45916;52.734;6.544;2023-01-19T01:02:41;12.05;;;9.38;;
60038;SDS011;45916;52.734;6.544;2023-01-19T01:05:09;11.48;;;10.18;;
60038;SDS011;45916;52.734;6.544;2023-01-19T01:07:35;11.38;;;9.43;;
60038;SDS011;45916;52.734;6.544;2023-01-19T01:10:26;12.25;;;10.77;;
60038;SDS011;45916;52.734;6.544;2023-01-19T01:12:51;13.20;;;11.85;;
60038;SDS011;45916;52.734;6.544;2023-01-19T01:15:17;12.77;;;11.48;;
60038;SDS011;45916;52.734;6.544;2023-01-19T01:17:43;13.80;;;11.48;;
60038;SDS011;45916;52.734;6.544;2023-01-19T01:20:16;13.05;;;11.32;;
60038;SDS011;45916;52.734;6.544;2023-01-19T01:22:48;13.45;;;11.45;;
60038;SDS011;45916;52.734;6.544;2023-01-19T01:25:16;14.23;;;12.80;;
60038;SDS011;45916;52.734;6.544;2023-01-19T01:27:44;14.93;;;13.38;;
60038;SDS011;45916;52.734;6.544;2023-01-19T01:30:10;14.68;;;13.20;;
60038;SDS011;45916;52.734;6.544;2023-01-19T01:32:38;14.00;;;11.80;;
60038;SDS011;45916;52.734;6.544;2023-01-19T01:35:04;16.50;;;14.80;;
60038;SDS011;45916;52.734;6.544;2023-01-19T01:37:31;16.17;;;14.55;;
60038;SDS011;45916;52.734;6.544;2023-01-19T01:39:56;14.50;;;13.05;;
60038;SDS011;45916;52.734;6.544;2023-01-19T01:42:26;12.27;;;10.02;;
60038;SDS011;45916;52.734;6.544;2023-01-19T01:44:54;16.67;;;14.93;;
60038;SDS011;45916;52.734;6.544;2023-01-19T01:47:26;17.10;;;14.95;;
60038;SDS011;45916;52.734;6.544;2023-01-19T01:52:27;18.98;;;17.17;;
60038;SDS011;45916;52.734;6.544;2023-01-19T01:54:54;19.70;;;17.60;;
60038;SDS011;45916;52.734;6.544;2023-01-19T01:57:21;19.27;;;17.27;;
60038;SDS011;45916;52.734;6.544;2023-01-19T01:59:47;18.67;;;16.55;;
60038;SDS011;45916;52.734;6.544;2023-01-19T02:02:16;20.15;;;17.33;;
60038;SDS011;45916;52.734;6.544;2023-01-19T02:05:05;21.42;;;19.23;;
60038;SDS011;45916;52.734;6.544;2023-01-19T02:10:34;21.25;;;19.08;;
60038;SDS011;45916;52.734;6.544;2023-01-19T02:13:19;21.52;;;19.33;;
60038;SDS011;45916;52.734;6.544;2023-01-19T02:15:52;21.45;;;19.23;;
60038;SDS011;45916;52.734;6.544;2023-01-19T02:18:20;21.58;;;19.35;;
60038;SDS011;45916;52.734;6.544;2023-01-19T02:26:15;21.55;;;19.23;;
60038;SDS011;45916;52.734;6.544;2023-01-19T02:28:45;21.08;;;18.58;;
60038;SDS011;45916;52.734;6.544;2023-01-19T02:31:15;21.40;;;19.17;;
60038;SDS011;45916;52.734;6.544;2023-01-19T02:33:41;21.40;;;19.10;;
60038;SDS011;45916;52.734;6.544;2023-01-19T02:36:08;18.90;;;16.70;;
60038;SDS011;45916;52.734;6.544;2023-01-19T02:41:02;15.25;;;12.32;;
60038;SDS011;45916;52.734;6.544;2023-01-19T02:43:31;20.05;;;17.95;;
60038;SDS011;45916;52.734;6.544;2023-01-19T02:45:58;19.25;;;17.38;;
60038;SDS011;45916;52.734;6.544;2023-01-19T02:48:23;19.02;;;17.05;;
60038;SDS011;45916;52.734;6.544;2023-01-19T02:50:53;21.83;;;18.05;;
60038;SDS011;45916;52.734;6.544;2023-01-19T03:04:16;19.73;;;17.63;;
60038;SDS011;45916;52.734;6.544;2023-01-19T03:07:26;20.58;;;18.48;;
60038;SDS011;45916;52.734;6.544;2023-01-19T03:10:31;22.90;;;20.50;;
60038;SDS011;45916;52.734;6.544;2023-01-19T03:13:10;20.38;;;18.25;;
60038;SDS011;45916;52.734;6.544;2023-01-19T03:15:45;23.15;;;20.73;;
60038;SDS011;45916;52.734;6.544;2023-01-19T03:18:32;21.13;;;18.92;;
60038;SDS011;45916;52.734;6.544;2023-01-19T03:21:00;20.08;;;18.05;;
60038;SDS011;45916;52.734;6.544;2023-01-19T03:23:30;20.05;;;17.38;;
60038;SDS011;45916;52.734;6.544;2023-01-19T03:25:58;18.75;;;16.83;;
60038;SDS011;45916;52.734;6.544;2023-01-19T03:28:25;20.92;;;18.73;;
60038;SDS011;45916;52.734;6.544;2023-01-19T03:30:59;19.98;;;18.02;;
60038;SDS011;45916;52.734;6.544;2023-01-19T03:33:32;19.35;;;17.40;;
60038;SDS011;45916;52.734;6.544;2023-01-19T03:36:04;18.30;;;16.35;;
60038;SDS011;45916;52.734;6.544;2023-01-19T03:38:36;17.88;;;15.57;;
60038;SDS011;45916;52.734;6.544;2023-01-19T03:41:05;18.05;;;16.15;;
60038;SDS011;45916;52.734;6.544;2023-01-19T03:43:34;18.05;;;15.25;;
60038;SDS011;45916;52.734;6.544;2023-01-19T03:46:03;19.27;;;17.30;;
60038;SDS011;45916;52.734;6.544;2023-01-19T03:48:30;19.05;;;16.02;;
60038;SDS011;45916;52.734;6.544;2023-01-19T03:50:56;17.75;;;15.25;;
60038;SDS011;45916;52.734;6.544;2023-01-19T03:53:22;16.98;;;15.18;;
60038;SDS011;45916;52.734;6.544;2023-01-19T03:55:49;17.48;;;15.52;;
60038;SDS011;45916;52.734;6.544;2023-01-19T03:58:15;17.50;;;14.93;;
60038;SDS011;45916;52.734;6.544;2023-01-19T04:00:41;18.25;;;15.18;;
60038;SDS011;45916;52.734;6.544;2023-01-19T04:03:14;14.43;;;12.90;;
60038;SDS011;45916;52.734;6.544;2023-01-19T04:05:41;13.43;;;12.02;;
60038;SDS011;45916;52.734;6.544;2023-01-19T04:08:07;11.93;;;10.57;;
60038;SDS011;45916;52.734;6.544;2023-01-19T04:10:34;12.32;;;9.93;;
60038;SDS011;45916;52.734;6.544;2023-01-19T04:13:00;12.82;;;11.48;;
60038;SDS011;45916;52.734;6.544;2023-01-19T04:15:26;12.45;;;10.23;;
60038;SDS011;45916;52.734;6.544;2023-01-19T04:17:53;11.90;;;10.57;;
60038;SDS011;45916;52.734;6.544;2023-01-19T04:20:19;11.80;;;10.10;;
60038;SDS011;45916;52.734;6.544;2023-01-19T04:22:45;11.68;;;10.27;;
60038;SDS011;45916;52.734;6.544;2023-01-19T04:25:11;11.40;;;9.73;;
60038;SDS011;45916;52.734;6.544;2023-01-19T04:27:37;12.60;;;9.75;;
60038;SDS011;45916;52.734;6.544;2023-01-19T04:30:03;11.10;;;8.98;;
60038;SDS011;45916;52.734;6.544;2023-01-19T04:32:30;11.32;;;10.13;;
60038;SDS011;45916;52.734;6.544;2023-01-19T04:34:56;12.75;;;10.35;;
60038;SDS011;45916;52.734;6.544;2023-01-19T04:37:22;12.88;;;11.20;;
60038;SDS011;45916;52.734;6.544;2023-01-19T04:39:48;13.93;;;11.05;;
60038;SDS011;45916;52.734;6.544;2023-01-19T04:42:13;15.13;;;10.73;;
60038;SDS011;45916;52.734;6.544;2023-01-19T04:44:40;14.48;;;12.18;;
60038;SDS011;45916;52.734;6.544;2023-01-19T04:47:06;14.95;;;11.93;;
60038;SDS011;45916;52.734;6.544;2023-01-19T04:49:32;15.63;;;11.68;;
60038;SDS011;45916;52.734;6.544;2023-01-19T04:52:01;14.18;;;11.05;;
60038;SDS011;45916;52.734;6.544;2023-01-19T04:54:31;13.25;;;10.63;;
60038;SDS011;45916;52.734;6.544;2023-01-19T04:56:57;14.82;;;11.65;;
60038;SDS011;45916;52.734;6.544;2023-01-19T04:59:22;14.38;;;10.40;;
60038;SDS011;45916;52.734;6.544;2023-01-19T05:01:48;16.00;;;11.32;;
60038;SDS011;45916;52.734;6.544;2023-01-19T05:04:14;14.63;;;10.00;;
60038;SDS011;45916;52.734;6.544;2023-01-19T05:06:40;13.45;;;9.85;;
60038;SDS011;45916;52.734;6.544;2023-01-19T05:09:06;14.05;;;9.63;;
60038;SDS011;45916;52.734;6.544;2023-01-19T05:11:33;15.88;;;9.13;;
60038;SDS011;45916;52.734;6.544;2023-01-19T05:13:59;16.75;;;8.77;;
60038;SDS011;45916;52.734;6.544;2023-01-19T05:16:25;11.95;;;8.05;;
60038;SDS011;45916;52.734;6.544;2023-01-19T05:18:51;15.10;;;7.60;;
60038;SDS011;45916;52.734;6.544;2023-01-19T05:21:16;13.00;;;7.35;;
60038;SDS011;45916;52.734;6.544;2023-01-19T05:23:42;13.13;;;7.00;;
60038;SDS011;45916;52.734;6.544;2023-01-19T05:26:08;10.48;;;4.75;;
60038;SDS011;45916;52.734;6.544;2023-01-19T05:28:34;10.45;;;4.40;;
60038;SDS011;45916;52.734;6.544;2023-01-19T05:31:00;12.98;;;4.53;;
60038;SDS011;45916;52.734;6.544;2023-01-19T05:33:25;11.18;;;3.33;;
60038;SDS011;45916;52.734;6.544;2023-01-19T05:35:52;9.40;;;3.40;;
60038;SDS011;45916;52.734;6.544;2023-01-19T05:38:18;7.63;;;2.42;;
60038;SDS011;45916;52.734;6.544;2023-01-19T05:40:45;9.00;;;3.28;;
60038;SDS011;45916;52.734;6.544;2023-01-19T05:43:11;6.60;;;2.75;;
60038;SDS011;45916;52.734;6.544;2023-01-19T05:45:38;7.70;;;2.20;;
60038;SDS011;45916;52.734;6.544;2023-01-19T05:48:04;7.75;;;2.03;;
60038;SDS011;45916;52.734;6.544;2023-01-19T05:50:30;6.78;;;1.95;;
60038;SDS011;45916;52.734;6.544;2023-01-19T05:52:57;6.93;;;1.77;;
60038;SDS011;45916;52.734;6.544;2023-01-19T05:55:23;5.75;;;1.52;;
60038;SDS011;45916;52.734;6.544;2023-01-19T05:57:49;5.03;;;1.55;;
60038;SDS011;45916;52.734;6.544;2023-01-19T06:00:15;5.93;;;1.70;;
60038;SDS011;45916;52.734;6.544;2023-01-19T06:02:41;6.18;;;2.05;;
60038;SDS011;45916;52.734;6.544;2023-01-19T06:05:07;6.32;;;1.65;;
60038;SDS011;45916;52.734;6.544;2023-01-19T06:07:33;5.63;;;1.40;;
60038;SDS011;45916;52.734;6.544;2023-01-19T06:09:59;5.10;;;1.60;;
60038;SDS011;45916;52.734;6.544;2023-01-19T06:12:25;7.63;;;1.73;;
60038;SDS011;45916;52.734;6.544;2023-01-19T06:14:51;5.15;;;1.52;;
60038;SDS011;45916;52.734;6.544;2023-01-19T06:17:16;6.38;;;1.60;;
60038;SDS011;45916;52.734;6.544;2023-01-19T06:19:42;6.35;;;1.40;;
60038;SDS011;45916;52.734;6.544;2023-01-19T06:22:08;4.90;;;1.35;;
60038;SDS011;45916;52.734;6.544;2023-01-19T06:24:33;5.65;;;1.88;;
60038;SDS011;45916;52.734;6.544;2023-01-19T06:26:59;4.90;;;1.58;;
60038;SDS011;45916;52.734;6.544;2023-01-19T06:29:25;4.82;;;1.60;;
60038;SDS011;45916;52.734;6.544;2023-01-19T06:31:51;5.85;;;1.10;;
60038;SDS011;45916;52.734;6.544;2023-01-19T06:34:17;5.45;;;1.58;;
60038;SDS011;45916;52.734;6.544;2023-01-19T06:36:44;6.07;;;1.83;;
60038;SDS011;45916;52.734;6.544;2023-01-19T06:39:10;7.28;;;2.25;;
60038;SDS011;45916;52.734;6.544;2023-01-19T06:41:36;8.10;;;2.63;;
60038;SDS011;45916;52.734;6.544;2023-01-19T06:44:03;6.50;;;2.63;;
60038;SDS011;45916;52.734;6.544;2023-01-19T06:46:29;7.43;;;2.45;;
60038;SDS011;45916;52.734;6.544;2023-01-19T06:48:55;7.07;;;2.30;;
60038;SDS011;45916;52.734;6.544;2023-01-19T06:51:21;9.18;;;2.97;;
60038;SDS011;45916;52.734;6.544;2023-01-19T06:53:47;8.05;;;2.63;;
60038;SDS011;45916;52.734;6.544;2023-01-19T06:56:14;8.50;;;2.50;;
60038;SDS011;45916;52.734;6.544;2023-01-19T06:58:39;9.85;;;2.42;;
60038;SDS011;45916;52.734;6.544;2023-01-19T07:01:06;9.55;;;2.17;;
60038;SDS011;45916;52.734;6.544;2023-01-19T07:03:33;10.50;;;2.20;;
60038;SDS011;45916;52.734;6.544;2023-01-19T07:05:59;6.82;;;1.67;;
60038;SDS011;45916;52.734;6.544;2023-01-19T07:08:26;9.18;;;2.30;;
60038;SDS011;45916;52.734;6.544;2023-01-19T07:10:59;8.95;;;2.95;;
60038;SDS011;45916;52.734;6.544;2023-01-19T07:13:26;10.30;;;2.80;;
60038;SDS011;45916;52.734;6.544;2023-01-19T07:15:52;7.57;;;2.10;;
60038;SDS011;45916;52.734;6.544;2023-01-19T07:18:18;9.85;;;3.25;;
60038;SDS011;45916;52.734;6.544;2023-01-19T07:20:43;14.95;;;3.30;;
60038;SDS011;45916;52.734;6.544;2023-01-19T07:23:10;36.28;;;6.53;;
60038;SDS011;45916;52.734;6.544;2023-01-19T07:25:36;32.63;;;5.20;;
60038;SDS011;45916;52.734;6.544;2023-01-19T07:28:03;28.77;;;4.85;;
60038;SDS011;45916;52.734;6.544;2023-01-19T07:30:28;15.98;;;3.97;;
60038;SDS011;45916;52.734;6.544;2023-01-19T07:32:55;17.67;;;4.10;;
60038;SDS011;45916;52.734;6.544;2023-01-19T07:35:22;16.70;;;3.45;;
60038;SDS011;45916;52.734;6.544;2023-01-19T07:37:48;15.57;;;3.20;;
60038;SDS011;45916;52.734;6.544;2023-01-19T07:40:14;13.45;;;3.33;;
60038;SDS011;45916;52.734;6.544;2023-01-19T07:42:47;15.70;;;4.13;;
60038;SDS011;45916;52.734;6.544;2023-01-19T07:45:17;20.10;;;3.45;;
60038;SDS011;45916;52.734;6.544;2023-01-19T07:47:44;16.63;;;3.67;;
60038;SDS011;45916;52.734;6.544;2023-01-19T07:50:13;11.65;;;3.30;;
60038;SDS011;45916;52.734;6.544;2023-01-19T07:52:39;17.15;;;3.55;;
60038;SDS011;45916;52.734;6.544;2023-01-19T07:55:06;13.63;;;2.90;;
60038;SDS011;45916;52.734;6.544;2023-01-19T07:57:32;15.15;;;3.08;;
60038;SDS011;45916;52.734;6.544;2023-01-19T07:59:59;13.23;;;3.80;;
60038;SDS011;45916;52.734;6.544;2023-01-19T08:02:25;14.63;;;2.97;;
60038;SDS011;45916;52.734;6.544;2023-01-19T08:04:51;15.95;;;3.55;;
60038;SDS011;45916;52.734;6.544;2023-01-19T08:07:16;16.25;;;2.72;;
60038;SDS011;45916;52.734;6.544;2023-01-19T08:09:42;15.95;;;3.08;;
60038;SDS011;45916;52.734;6.544;2023-01-19T08:12:08;12.13;;;4.10;;
60038;SDS011;45916;52.734;6.544;2023-01-19T08:14:34;12.50;;;2.50;;
60038;SDS011;45916;52.734;6.544;2023-01-19T08:17:00;11.32;;;2.85;;
60038;SDS011;45916;52.734;6.544;2023-01-19T08:19:26;15.02;;;3.35;;
60038;SDS011;45916;52.734;6.544;2023-01-19T08:21:52;12.68;;;2.70;;
60038;SDS011;45916;52.734;6.544;2023-01-19T08:24:18;14.40;;;3.13;;
60038;SDS011;45916;52.734;6.544;2023-01-19T08:26:57;13.38;;;2.65;;
60038;SDS011;45916;52.734;6.544;2023-01-19T08:29:26;14.52;;;2.65;;
60038;SDS011;45916;52.734;6.544;2023-01-19T08:31:55;9.65;;;2.75;;
60038;SDS011;45916;52.734;6.544;2023-01-19T08:34:22;10.55;;;2.60;;
60038;SDS011;45916;52.734;6.544;2023-01-19T08:36:48;8.50;;;3.50;;
60038;SDS011;45916;52.734;6.544;2023-01-19T08:39:14;9.75;;;2.55;;
60038;SDS011;45916;52.734;6.544;2023-01-19T08:41:42;15.48;;;3.30;;
60038;SDS011;45916;52.734;6.544;2023-01-19T08:44:08;14.35;;;3.53;;
60038;SDS011;45916;52.734;6.544;2023-01-19T08:46:34;15.82;;;3.22;;
60038;SDS011;45916;52.734;6.544;2023-01-19T08:49:00;12.68;;;3.25;;
60038;SDS011;45916;52.734;6.544;2023-01-19T08:51:25;12.57;;;3.55;;
60038;SDS011;45916;52.734;6.544;2023-01-19T08:53:51;16.45;;;5.00;;
60038;SDS011;45916;52.734;6.544;2023-01-19T08:56:17;14.20;;;5.18;;
60038;SDS011;45916;52.734;6.544;2023-01-19T08:58:43;12.52;;;3.85;;
60038;SDS011;45916;52.734;6.544;2023-01-19T09:01:10;11.60;;;3.05;;
60038;SDS011;45916;52.734;6.544;2023-01-19T09:03:41;11.80;;;3.10;;
60038;SDS011;45916;52.734;6.544;2023-01-19T09:06:08;10.75;;;2.92;;
60038;SDS011;45916;52.734;6.544;2023-01-19T09:08:35;11.47;;;3.70;;
60038;SDS011;45916;52.734;6.544;2023-01-19T09:11:01;10.40;;;2.75;;
60038;SDS011;45916;52.734;6.544;2023-01-19T09:13:27;12.88;;;3.75;;
60038;SDS011;45916;52.734;6.544;2023-01-19T09:15:53;13.77;;;3.20;;
60038;SDS011;45916;52.734;6.544;2023-01-19T09:18:20;11.55;;;3.67;;
60038;SDS011;45916;52.734;6.544;2023-01-19T09:20:47;16.35;;;4.97;;
60038;SDS011;45916;52.734;6.544;2023-01-19T09:23:15;12.98;;;3.88;;
60038;SDS011;45916;52.734;6.544;2023-01-19T09:28:09;8.38;;;3.25;;
60038;SDS011;45916;52.734;6.544;2023-01-19T09:30:37;10.52;;;3.30;;
60038;SDS011;45916;52.734;6.544;2023-01-19T09:33:08;10.70;;;3.30;;
60038;SDS011;45916;52.734;6.544;2023-01-19T09:35:36;9.32;;;3.15;;
60038;SDS011;45916;52.734;6.544;2023-01-19T09:38:03;11.50;;;3.30;;
60038;SDS011;45916;52.734;6.544;2023-01-19T09:45:56;13.80;;;3.42;;
60038;SDS011;45916;52.734;6.544;2023-01-19T09:51:04;12.52;;;2.90;;
60038;SDS011;45916;52.734;6.544;2023-01-19T09:53:47;10.38;;;2.60;;
60038;SDS011;45916;52.734;6.544;2023-01-19T09:56:20;10.05;;;2.65;;
60038;SDS011;45916;52.734;6.544;2023-01-19T09:58:47;10.05;;;2.60;;
60038;SDS011;45916;52.734;6.544;2023-01-19T10:01:38;8.02;;;2.45;;
60038;SDS011;45916;52.734;6.544;2023-01-19T10:04:26;8.30;;;2.33;;
60038;SDS011;45916;52.734;6.544;2023-01-19T10:06:55;12.35;;;3.22;;
60038;SDS011;45916;52.734;6.544;2023-01-19T10:09:37;11.70;;;2.88;;
60038;SDS011;45916;52.734;6.544;2023-01-19T10:14:56;11.68;;;3.00;;
60038;SDS011;45916;52.734;6.544;2023-01-19T10:17:42;10.30;;;2.63;;
60038;SDS011;45916;52.734;6.544;2023-01-19T10:20:18;9.30;;;2.42;;
60038;SDS011;45916;52.734;6.544;2023-01-19T10:22:50;11.63;;;2.60;;
60038;SDS011;45916;52.734;6.544;2023-01-19T10:25:17;8.93;;;2.25;;
60038;SDS011;45916;52.734;6.544;2023-01-19T10:27:47;10.68;;;2.60;;
60038;SDS011;45916;52.734;6.544;2023-01-19T10:30:23;9.13;;;3.35;;
60038;SDS011;45916;52.734;6.544;2023-01-19T10:32:52;10.32;;;2.70;;
60038;SDS011;45916;52.734;6.544;2023-01-19T10:35:19;9.82;;;2.95;;
60038;SDS011;45916;52.734;6.544;2023-01-19T10:37:50;7.60;;;2.35;;
60038;SDS011;45916;52.734;6.544;2023-01-19T10:42:51;8.32;;;2.45;;
60038;SDS011;45916;52.734;6.544;2023-01-19T10:45:18;9.63;;;3.28;;
60038;SDS011;45916;52.734;6.544;2023-01-19T10:47:49;7.90;;;2.60;;
60038;SDS011;45916;52.734;6.544;2023-01-19T10:50:27;8.65;;;2.83;;
60038;SDS011;45916;52.734;6.544;2023-01-19T10:52:56;12.20;;;3.38;;
60038;SDS011;45916;52.734;6.544;2023-01-19T10:58:01;9.00;;;2.60;;
60038;SDS011;45916;52.734;6.544;2023-01-19T11:02:53;9.38;;;2.88;;
60038;SDS011;45916;52.734;6.544;2023-01-19T11:05:23;12.18;;;2.55;;
60038;SDS011;45916;52.734;6.544;2023-01-19T11:07:51;8.07;;;2.42;;
60038;SDS011;45916;52.734;6.544;2023-01-19T11:10:21;10.45;;;2.40;;
60038;SDS011;45916;52.734;6.544;2023-01-19T11:15:41;9.55;;;2.40;;
60038;SDS011;45916;52.734;6.544;2023-01-19T11:21:01;11.93;;;3.00;;
60038;SDS011;45916;52.734;6.544;2023-01-19T11:23:37;9.55;;;2.35;;
60038;SDS011;45916;52.734;6.544;2023-01-19T11:29:21;8.48;;;2.50;;
60038;SDS011;45916;52.734;6.544;2023-01-19T11:31:49;7.63;;;1.80;;
60038;SDS011;45916;52.734;6.544;2023-01-19T11:34:21;6.47;;;1.75;;
60038;SDS011;45916;52.734;6.544;2023-01-19T11:39:27;5.13;;;2.03;;
60038;SDS011;45916;52.734;6.544;2023-01-19T11:41:58;7.18;;;2.55;;
60038;SDS011;45916;52.734;6.544;2023-01-19T11:44:30;6.38;;;2.03;;
60038;SDS011;45916;52.734;6.544;2023-01-19T11:47:00;7.70;;;1.88;;
60038;SDS011;45916;52.734;6.544;2023-01-19T11:49:30;9.48;;;2.28;;
60038;SDS011;45916;52.734;6.544;2023-01-19T11:52:02;7.55;;;2.25;;
60038;SDS011;45916;52.734;6.544;2023-01-19T11:54:35;9.05;;;2.10;;
60038;SDS011;45916;52.734;6.544;2023-01-19T11:57:12;7.80;;;1.92;;
60038;SDS011;45916;52.734;6.544;2023-01-19T11:59:41;9.05;;;2.00;;
60038;SDS011;45916;52.734;6.544;2023-01-19T12:02:15;9.82;;;2.22;;
60038;SDS011;45916;52.734;6.544;2023-01-19T12:04:49;9.45;;;2.55;;
60038;SDS011;45916;52.734;6.544;2023-01-19T12:07:21;8.88;;;1.77;;
60038;SDS011;45916;52.734;6.544;2023-01-19T12:09:53;7.05;;;1.80;;
60038;SDS011;45916;52.734;6.544;2023-01-19T12:12:32;6.82;;;1.70;;
60038;SDS011;45916;52.734;6.544;2023-01-19T12:15:06;8.80;;;2.05;;
60038;SDS011;45916;52.734;6.544;2023-01-19T12:17:54;7.57;;;1.67;;
60038;SDS011;45916;52.734;6.544;2023-01-19T12:28:39;6.18;;;1.50;;
60038;SDS011;45916;52.734;6.544;2023-01-19T12:31:08;10.20;;;3.20;;
60038;SDS011;45916;52.734;6.544;2023-01-19T12:33:35;9.70;;;1.75;;
60038;SDS011;45916;52.734;6.544;2023-01-19T12:36:08;7.47;;;1.70;;
60038;SDS011;45916;52.734;6.544;2023-01-19T12:41:44;6.47;;;1.50;;
60038;SDS011;45916;52.734;6.544;2023-01-19T12:46:42;6.63;;;2.08;;
60038;SDS011;45916;52.734;6.544;2023-01-19T12:57:39;7.13;;;2.05;;
60038;SDS011;45916;52.734;6.544;2023-01-19T13:15:54;6.97;;;2.10;;
60038;SDS011;45916;52.734;6.544;2023-01-19T13:18:22;7.30;;;1.98;;
60038;SDS011;45916;52.734;6.544;2023-01-19T13:24:13;8.13;;;1.80;;
60038;SDS011;45916;52.734;6.544;2023-01-19T13:26:16;8.02;;;2.13;;
60038;SDS011;45916;52.734;6.544;2023-01-19T13:28:45;7.95;;;1.92;;
60038;SDS011;45916;52.734;6.544;2023-01-19T13:31:14;5.97;;;2.40;;
60038;SDS011;45916;52.734;6.544;2023-01-19T13:36:21;6.00;;;2.38;;
60038;SDS011;45916;52.734;6.544;2023-01-19T13:38:53;6.57;;;1.90;;
60038;SDS011;45916;52.734;6.544;2023-01-19T13:41:26;6.30;;;1.70;;
60038;SDS011;45916;52.734;6.544;2023-01-19T13:44:02;11.20;;;2.13;;
60038;SDS011;45916;52.734;6.544;2023-01-19T13:46:32;8.68;;;2.30;;
60038;SDS011;45916;52.734;6.544;2023-01-19T13:49:00;8.10;;;1.95;;
60038;SDS011;45916;52.734;6.544;2023-01-19T13:51:29;7.70;;;2.20;;
60038;SDS011;45916;52.734;6.544;2023-01-19T13:53:55;7.72;;;2.22;;
60038;SDS011;45916;52.734;6.544;2023-01-19T13:56:23;4.85;;;1.98;;
60038;SDS011;45916;52.734;6.544;2023-01-19T13:59:10;6.47;;;1.80;;
60038;SDS011;45916;52.734;6.544;2023-01-19T14:01:41;8.15;;;2.30;;
60038;SDS011;45916;52.734;6.544;2023-01-19T14:06:55;6.55;;;1.50;;
60038;SDS011;45916;52.734;6.544;2023-01-19T14:09:23;5.20;;;1.70;;
60038;SDS011;45916;52.734;6.544;2023-01-19T14:12:03;7.32;;;1.60;;
60038;SDS011;45916;52.734;6.544;2023-01-19T14:14:37;6.40;;;1.80;;
60038;SDS011;45916;52.734;6.544;2023-01-19T14:17:03;8.55;;;1.90;;
60038;SDS011;45916;52.734;6.544;2023-01-19T14:19:48;8.55;;;1.90;;
60038;SDS011;45916;52.734;6.544;2023-01-19T14:22:16;6.65;;;2.15;;
60038;SDS011;45916;52.734;6.544;2023-01-19T14:24:41;7.70;;;2.20;;
60038;SDS011;45916;52.734;6.544;2023-01-19T14:27:23;8.50;;;1.60;;
60038;SDS011;45916;52.734;6.544;2023-01-19T14:29:49;8.38;;;1.80;;
60038;SDS011;45916;52.734;6.544;2023-01-19T14:37:36;5.20;;;1.70;;
60038;SDS011;45916;52.734;6.544;2023-01-19T14:42:52;7.45;;;1.88;;
60038;SDS011;45916;52.734;6.544;2023-01-19T14:45:27;5.50;;;1.60;;
60038;SDS011;45916;52.734;6.544;2023-01-19T14:47:57;5.63;;;1.73;;
60038;SDS011;45916;52.734;6.544;2023-01-19T14:50:31;6.07;;;2.00;;
60038;SDS011;45916;52.734;6.544;2023-01-19T14:53:04;9.13;;;1.90;;
60038;SDS011;45916;52.734;6.544;2023-01-19T14:58:10;6.20;;;2.00;;
60038;SDS011;45916;52.734;6.544;2023-01-19T15:00:38;8.35;;;1.67;;
60038;SDS011;45916;52.734;6.544;2023-01-19T15:03:04;6.50;;;2.33;;
60038;SDS011;45916;52.734;6.544;2023-01-19T15:05:33;8.65;;;2.63;;
60038;SDS011;45916;52.734;6.544;2023-01-19T15:08:01;8.98;;;2.10;;
60038;SDS011;45916;52.734;6.544;2023-01-19T15:10:28;9.52;;;2.38;;
60038;SDS011;45916;52.734;6.544;2023-01-19T15:12:55;5.60;;;2.22;;
60038;SDS011;45916;52.734;6.544;2023-01-19T15:15:42;6.88;;;2.22;;
60038;SDS011;45916;52.734;6.544;2023-01-19T15:18:08;7.43;;;2.83;;
60038;SDS011;45916;52.734;6.544;2023-01-19T15:20:38;8.55;;;4.13;;
60038;SDS011;45916;52.734;6.544;2023-01-19T15:23:04;11.10;;;3.92;;
60038;SDS011;45916;52.734;6.544;2023-01-19T15:25:30;12.13;;;2.40;;
60038;SDS011;45916;52.734;6.544;2023-01-19T15:27:56;10.35;;;2.40;;
60038;SDS011;45916;52.734;6.544;2023-01-19T15:30:24;9.75;;;2.45;;
60038;SDS011;45916;52.734;6.544;2023-01-19T15:32:52;8.90;;;2.13;;
60038;SDS011;45916;52.734;6.544;2023-01-19T15:35:18;9.25;;;2.25;;
60038;SDS011;45916;52.734;6.544;2023-01-19T15:37:45;6.90;;;1.98;;
60038;SDS011;45916;52.734;6.544;2023-01-19T15:40:12;9.00;;;2.78;;
60038;SDS011;45916;52.734;6.544;2023-01-19T15:42:39;7.30;;;1.95;;
60038;SDS011;45916;52.734;6.544;2023-01-19T15:45:33;10.13;;;3.28;;
60038;SDS011;45916;52.734;6.544;2023-01-19T15:48:02;5.53;;;1.85;;
60038;SDS011;45916;52.734;6.544;2023-01-19T15:50:29;8.88;;;2.35;;
60038;SDS011;45916;52.734;6.544;2023-01-19T15:52:56;8.55;;;2.15;;
60038;SDS011;45916;52.734;6.544;2023-01-19T15:55:22;8.45;;;2.75;;
60038;SDS011;45916;52.734;6.544;2023-01-19T15:57:48;9.32;;;2.30;;
60038;SDS011;45916;52.734;6.544;2023-01-19T16:00:14;6.90;;;1.70;;
60038;SDS011;45916;52.734;6.544;2023-01-19T16:02:40;21.13;;;3.80;;
60038;SDS011;45916;52.734;6.544;2023-01-19T16:05:06;10.50;;;3.17;;
60038;SDS011;45916;52.734;6.544;2023-01-19T16:07:35;12.75;;;3.42;;
60038;SDS011;45916;52.734;6.544;2023-01-19T16:10:01;8.05;;;3.28;;
60038;SDS011;45916;52.734;6.544;2023-01-19T16:12:27;7.28;;;2.67;;
60038;SDS011;45916;52.734;6.544;2023-01-19T16:14:53;8.88;;;3.30;;
60038;SDS011;45916;52.734;6.544;2023-01-19T16:17:19;13.90;;;4.00;;
60038;SDS011;45916;52.734;6.544;2023-01-19T16:19:45;11.65;;;2.95;;
60038;SDS011;45916;52.734;6.544;2023-01-19T16:22:12;8.77;;;3.25;;
60038;SDS011;45916;52.734;6.544;2023-01-19T16:24:37;12.55;;;3.10;;
60038;SDS011;45916;52.734;6.544;2023-01-19T16:27:03;10.68;;;2.63;;
60038;SDS011;45916;52.734;6.544;2023-01-19T16:29:29;8.38;;;2.85;;
60038;SDS011;45916;52.734;6.544;2023-01-19T16:31:55;10.77;;;4.18;;
60038;SDS011;45916;52.734;6.544;2023-01-19T16:34:21;10.68;;;4.80;;
60038;SDS011;45916;52.734;6.544;2023-01-19T16:36:49;9.80;;;4.35;;
60038;SDS011;45916;52.734;6.544;2023-01-19T16:39:15;13.27;;;4.63;;
60038;SDS011;45916;52.734;6.544;2023-01-19T16:41:41;16.33;;;4.80;;